Time;durP1;ratioP1;P1;durP2;ratioP2;P2;SDS_P1;SDS_P2;PMS_P1;PMS_P2;Temp;Humidity;BMP_temperature;BMP_pressure;BME280_temperature;BME280_humidity;BME280_pressure;Samples;Min_cycle;Max_cycle;Signal;HPM_P1;HPM_P2
2022/05/10 00:00:04;;;;;;;14.45;7.05;;;;;;;;;;4977269;28;20046;-84
2022/05/10 00:02:32;;;;;;;14.95;6.90;;;;;;;;;;4977001;28;20387;-84
2022/05/10 00:04:58;;;;;;;12.00;6.82;;;;;;;;;;4977395;28;20042;-84
2022/05/10 00:07:24;;;;;;;15.88;7.25;;;;;;;;;;4977186;28;20125;-84
2022/05/10 00:09:50;;;;;;;15.65;6.90;;;;;;;;;;4977073;28;20042;-83
2022/05/10 00:12:16;;;;;;;14.23;6.78;;;;;;;;;;4960929;28;20049;-84
2022/05/10 00:14:42;;;;;;;12.23;7.20;;;;;;;;;;4976942;28;20042;-84
2022/05/10 00:17:22;;;;;;;16.38;6.88;;;;;;;;;;4977046;28;20057;-84
2022/05/10 00:19:48;;;;;;;17.00;7.53;;;;;;;;;;4977085;28;20057;-84
2022/05/10 00:22:14;;;;;;;13.88;7.03;;;;;;;;;;4976779;28;20405;-84
2022/05/10 00:24:41;;;;;;;15.43;7.18;;;;;;;;;;4977044;28;20092;-84
2022/05/10 00:27:07;;;;;;;12.52;6.82;;;;;;;;;;4992981;28;20060;-84
2022/05/10 00:29:33;;;;;;;12.68;6.97;;;;;;;;;;4976690;28;20121;-84
2022/05/10 00:31:59;;;;;;;17.17;7.15;;;;;;;;;;4960500;28;20125;-84
2022/05/10 00:34:28;;;;;;;13.63;6.72;;;;;;;;;;4976760;28;20057;-84
2022/05/10 00:36:54;;;;;;;16.38;7.35;;;;;;;;;;4976722;28;20489;-84
2022/05/10 00:39:20;;;;;;;12.40;6.93;;;;;;;;;;4976305;28;20121;-84
2022/05/10 00:41:46;;;;;;;15.50;6.93;;;;;;;;;;4976559;28;20441;-84
2022/05/10 00:44:14;;;;;;;12.27;6.90;;;;;;;;;;4976330;28;20034;-84
2022/05/10 00:46:59;;;;;;;13.23;6.40;;;;;;;;;;4993984;28;20042;-84
2022/05/10 00:49:31;;;;;;;14.48;7.00;;;;;;;;;;4976152;28;20034;-84
2022/05/10 00:51:57;;;;;;;11.63;6.18;;;;;;;;;;4976808;28;20484;-84
2022/05/10 00:54:42;;;;;;;14.27;6.45;;;;;;;;;;4976027;28;20050;-84
2022/05/10 00:57:28;;;;;;;14.38;5.93;;;;;;;;;;4976239;28;20122;-84
2022/05/10 01:00:00;;;;;;;11.13;6.00;;;;;;;;;;4976638;28;20054;-84
2022/05/10 01:02:29;;;;;;;10.70;6.47;;;;;;;;;;4976053;28;20050;-84
2022/05/10 01:04:58;;;;;;;14.38;6.40;;;;;;;;;;4976155;28;20042;-84
2022/05/10 01:07:27;;;;;;;9.85;6.38;;;;;;;;;;4975812;28;20039;-85
2022/05/10 01:09:56;;;;;;;10.40;6.00;;;;;;;;;;4993438;28;20515;-84
2022/05/10 01:12:37;;;;;;;16.77;6.50;;;;;;;;;;4976097;28;20392;-84
2022/05/10 01:15:09;;;;;;;16.50;6.03;;;;;;;;;;4959942;28;20500;-84
2022/05/10 01:17:35;;;;;;;9.25;5.90;;;;;;;;;;4993436;28;20044;-84
2022/05/10 01:20:01;;;;;;;9.90;6.05;;;;;;;;;;4975981;28;20050;-84
2022/05/10 01:22:34;;;;;;;13.95;6.22;;;;;;;;;;4976207;28;20353;-84
2022/05/10 01:25:00;;;;;;;15.07;6.40;;;;;;;;;;4975862;28;20125;-85
2022/05/10 01:27:45;;;;;;;13.77;5.97;;;;;;;;;;4975866;28;20472;-84
2022/05/10 01:30:19;;;;;;;14.52;6.07;;;;;;;;;;4976137;28;20097;-84
2022/05/10 01:35:31;;;;;;;13.60;6.30;;;;;;;;;;4993541;28;20058;-84
2022/05/10 01:38:00;;;;;;;13.48;6.45;;;;;;;;;;4975868;28;20089;-85
2022/05/10 01:40:32;;;;;;;15.10;6.80;;;;;;;;;;4975945;28;20089;-84
2022/05/10 01:43:02;;;;;;;13.00;6.50;;;;;;;;;;4975703;28;20473;-84
2022/05/10 01:45:34;;;;;;;11.10;6.40;;;;;;;;;;4976271;28;20054;-84
2022/05/10 01:48:01;;;;;;;11.07;6.47;;;;;;;;;;4963554;28;20050;-84
2022/05/10 01:50:48;;;;;;;11.38;6.60;;;;;;;;;;4997359;28;20073;-84
2022/05/10 01:53:17;;;;;;;13.90;6.28;;;;;;;;;;4996895;28;20379;-84
2022/05/10 01:55:49;;;;;;;15.18;5.93;;;;;;;;;;4979790;28;20046;-84
2022/05/10 01:58:17;;;;;;;12.40;6.82;;;;;;;;;;4979254;28;20057;-83
2022/05/10 02:00:46;;;;;;;12.68;6.28;;;;;;;;;;4979730;28;20074;-83
2022/05/10 02:03:15;;;;;;;12.93;6.50;;;;;;;;;;4979268;28;20574;-84
2022/05/10 02:05:54;;;;;;;12.02;6.45;;;;;;;;;;4979263;28;20046;-84
2022/05/10 02:08:39;;;;;;;13.15;7.05;;;;;;;;;;4963126;28;20493;-84
2022/05/10 02:11:15;;;;;;;13.40;7.13;;;;;;;;;;4996665;28;20493;-84
2022/05/10 02:14:02;;;;;;;12.77;6.90;;;;;;;;;;4979580;28;20499;-84
2022/05/10 02:16:50;;;;;;;11.70;6.75;;;;;;;;;;4979427;28;20389;-84
2022/05/10 02:19:16;;;;;;;10.07;6.47;;;;;;;;;;4978739;28;20053;-83
2022/05/10 02:21:48;;;;;;;10.18;5.40;;;;;;;;;;4979081;28;20390;-83
2022/05/10 02:24:17;;;;;;;15.20;7.15;;;;;;;;;;4979224;28;20111;-84
2022/05/10 02:26:48;;;;;;;15.55;6.93;;;;;;;;;;4996553;28;20133;-84
2022/05/10 02:29:24;;;;;;;10.38;6.47;;;;;;;;;;4978755;28;20094;-85
2022/05/10 02:34:40;;;;;;;15.05;6.80;;;;;;;;;;4978602;28;20069;-83
2022/05/10 02:37:06;;;;;;;16.58;7.40;;;;;;;;;;4962578;28;20049;-84
2022/05/10 02:39:32;;;;;;;13.38;6.05;;;;;;;;;;4978543;28;20050;-84
2022/05/10 02:41:59;;;;;;;12.48;7.05;;;;;;;;;;4962522;28;20046;-84
2022/05/10 02:44:25;;;;;;;12.98;6.50;;;;;;;;;;4978598;28;20421;-84
2022/05/10 02:46:51;;;;;;;10.90;6.68;;;;;;;;;;4978624;28;20050;-84
2022/05/10 02:49:18;;;;;;;13.43;6.57;;;;;;;;;;4978291;28;20042;-84
2022/05/10 02:51:44;;;;;;;12.05;7.22;;;;;;;;;;4994708;28;20050;-84
2022/05/10 02:54:10;;;;;;;14.23;7.68;;;;;;;;;;4962152;28;20174;-85
2022/05/10 02:56:37;;;;;;;14.10;7.63;;;;;;;;;;4961937;28;20046;-84
2022/05/10 02:59:05;;;;;;;15.07;8.10;;;;;;;;;;4977375;28;20520;-85
2022/05/10 03:01:37;;;;;;;15.27;8.70;;;;;;;;;;4962463;28;20133;-84
2022/05/10 03:04:04;;;;;;;15.38;8.48;;;;;;;;;;4978054;28;20046;-85
2022/05/10 03:06:30;;;;;;;14.57;8.90;;;;;;;;;;4995633;28;20157;-84
2022/05/10 03:08:57;;;;;;;15.88;8.73;;;;;;;;;;4978299;28;20081;-84
2022/05/10 03:11:23;;;;;;;14.30;7.75;;;;;;;;;;4994433;28;20548;-84
2022/05/10 03:13:49;;;;;;;15.85;7.53;;;;;;;;;;4978046;28;20288;-84
2022/05/10 03:16:16;;;;;;;13.00;7.70;;;;;;;;;;4995559;28;20398;-84
2022/05/10 03:18:43;;;;;;;12.77;7.70;;;;;;;;;;4977711;28;20057;-85
2022/05/10 03:21:09;;;;;;;15.88;8.02;;;;;;;;;;4978019;28;20045;-85
2022/05/10 03:23:35;;;;;;;13.30;8.15;;;;;;;;;;4977878;28;20046;-85
2022/05/10 03:26:02;;;;;;;20.35;8.35;;;;;;;;;;4977648;28;20089;-85
2022/05/10 03:28:28;;;;;;;17.20;7.88;;;;;;;;;;4977851;28;20042;-85
2022/05/10 03:30:54;;;;;;;13.40;8.18;;;;;;;;;;4977595;28;20485;-85
2022/05/10 03:33:20;;;;;;;16.25;8.43;;;;;;;;;;4977733;28;20545;-84
2022/05/10 03:35:46;;;;;;;16.33;8.27;;;;;;;;;;4977521;28;20167;-84
2022/05/10 03:38:12;;;;;;;15.65;8.50;;;;;;;;;;4977632;28;20050;-86
2022/05/10 03:40:38;;;;;;;14.98;8.50;;;;;;;;;;4995090;28;20089;-85
2022/05/10 03:43:06;;;;;;;14.65;8.02;;;;;;;;;;4993826;28;20042;-84
2022/05/10 03:45:32;;;;;;;16.80;9.45;;;;;;;;;;4977238;28;20093;-84
2022/05/10 03:47:58;;;;;;;17.45;9.70;;;;;;;;;;4977540;28;20046;-84
2022/05/10 03:50:25;;;;;;;15.27;9.15;;;;;;;;;;4977558;28;20104;-84
2022/05/10 03:52:51;;;;;;;17.15;9.02;;;;;;;;;;4977341;28;20460;-84
2022/05/10 03:55:20;;;;;;;15.68;9.95;;;;;;;;;;4977190;28;20382;-85
2022/05/10 03:57:46;;;;;;;21.88;9.93;;;;;;;;;;4977225;28;20046;-85
2022/05/10 04:00:14;;;;;;;14.57;8.75;;;;;;;;;;4977200;28;20363;-85
2022/05/10 04:02:40;;;;;;;18.10;9.45;;;;;;;;;;4977316;28;20042;-85
2022/05/10 04:05:06;;;;;;;16.33;9.32;;;;;;;;;;4976885;28;20050;-85
2022/05/10 04:07:32;;;;;;;18.70;9.75;;;;;;;;;;4977000;28;20409;-85
2022/05/10 04:09:58;;;;;;;23.48;9.57;;;;;;;;;;4976481;28;20031;-84
2022/05/10 04:12:24;;;;;;;20.40;9.40;;;;;;;;;;4977350;28;20104;-84
2022/05/10 04:14:50;;;;;;;20.13;9.73;;;;;;;;;;4976858;28;20478;-85
2022/05/10 04:17:16;;;;;;;19.30;9.52;;;;;;;;;;4977233;28;20042;-84
2022/05/10 04:19:42;;;;;;;16.48;9.23;;;;;;;;;;4976701;28;20042;-85
2022/05/10 04:22:08;;;;;;;19.20;9.18;;;;;;;;;;4993021;28;20053;-85
2022/05/10 04:24:34;;;;;;;18.42;10.52;;;;;;;;;;4977180;28;20074;-84
2022/05/10 04:27:01;;;;;;;18.95;9.50;;;;;;;;;;4960560;28;20042;-84
2022/05/10 04:29:27;;;;;;;16.02;9.48;;;;;;;;;;4976808;28;20080;-84
2022/05/10 04:31:53;;;;;;;18.95;9.80;;;;;;;;;;4960681;28;20038;-84
2022/05/10 04:34:19;;;;;;;16.60;9.77;;;;;;;;;;4976660;28;20046;-84
2022/05/10 04:36:46;;;;;;;16.67;10.13;;;;;;;;;;4976340;28;20050;-84
2022/05/10 04:39:12;;;;;;;17.63;10.05;;;;;;;;;;4960287;28;20045;-84
2022/05/10 04:41:39;;;;;;;14.48;9.88;;;;;;;;;;4992689;28;20046;-84
2022/05/10 04:44:06;;;;;;;15.98;9.38;;;;;;;;;;4976664;28;20042;-84
2022/05/10 04:46:32;;;;;;;17.20;10.15;;;;;;;;;;4976145;28;20518;-84
2022/05/10 04:48:59;;;;;;;20.60;10.40;;;;;;;;;;4992607;28;20515;-84
2022/05/10 04:51:26;;;;;;;14.98;10.15;;;;;;;;;;4976198;28;20520;-84
2022/05/10 04:53:52;;;;;;;16.42;10.88;;;;;;;;;;4992356;28;20055;-84
2022/05/10 04:56:18;;;;;;;15.20;11.00;;;;;;;;;;4976229;28;20162;-84
2022/05/10 04:58:44;;;;;;;18.55;10.50;;;;;;;;;;4992384;28;20137;-83
2022/05/10 05:01:12;;;;;;;18.45;10.63;;;;;;;;;;4992186;28;20477;-84
2022/05/10 05:03:42;;;;;;;17.27;10.13;;;;;;;;;;4992602;28;20065;-84
2022/05/10 05:06:08;;;;;;;18.15;10.88;;;;;;;;;;4992242;28;20127;-84
2022/05/10 05:08:34;;;;;;;18.27;11.02;;;;;;;;;;4992618;28;20131;-85
2022/05/10 05:11:00;;;;;;;18.20;10.82;;;;;;;;;;4992344;28;20044;-84
2022/05/10 05:13:26;;;;;;;17.17;10.95;;;;;;;;;;4960101;28;20133;-85
2022/05/10 05:15:52;;;;;;;19.35;11.55;;;;;;;;;;4959855;28;20084;-85
2022/05/10 05:18:18;;;;;;;21.05;11.10;;;;;;;;;;4993350;28;20046;-85
2022/05/10 05:20:44;;;;;;;18.70;11.90;;;;;;;;;;4991285;28;20050;-85
2022/05/10 05:23:11;;;;;;;16.90;10.82;;;;;;;;;;4992170;28;20405;-84
2022/05/10 05:25:38;;;;;;;19.42;11.70;;;;;;;;;;4959777;28;20498;-85
2022/05/10 05:28:04;;;;;;;17.88;11.13;;;;;;;;;;4992116;28;20113;-85
2022/05/10 05:30:30;;;;;;;20.90;12.13;;;;;;;;;;4992292;28;20053;-86
2022/05/10 05:32:56;;;;;;;19.55;10.77;;;;;;;;;;4992026;28;20092;-84
2022/05/10 05:35:22;;;;;;;17.83;11.02;;;;;;;;;;4992204;28;20038;-84
2022/05/10 05:37:48;;;;;;;19.98;10.95;;;;;;;;;;4992237;28;20486;-85
2022/05/10 05:40:16;;;;;;;19.77;11.50;;;;;;;;;;4959629;28;20101;-84
2022/05/10 05:42:42;;;;;;;19.95;11.60;;;;;;;;;;4992210;28;20109;-84
2022/05/10 05:45:09;;;;;;;20.83;11.60;;;;;;;;;;4991715;28;20482;-84
2022/05/10 05:47:35;;;;;;;16.70;10.10;;;;;;;;;;4975608;28;20393;-84
2022/05/10 05:50:01;;;;;;;18.42;11.50;;;;;;;;;;4991901;28;20038;-85
2022/05/10 05:52:27;;;;;;;21.60;11.45;;;;;;;;;;4991864;28;20511;-84
2022/05/10 05:54:54;;;;;;;19.52;11.63;;;;;;;;;;4991664;28;20070;-84
2022/05/10 05:57:20;;;;;;;16.30;11.10;;;;;;;;;;4991980;28;20073;-84
2022/05/10 05:59:46;;;;;;;15.73;10.98;;;;;;;;;;4991752;28;20046;-85
2022/05/10 06:02:15;;;;;;;17.58;11.05;;;;;;;;;;4991509;28;20046;-85
2022/05/10 06:04:41;;;;;;;16.73;11.82;;;;;;;;;;4992083;28;20042;-84
2022/05/10 06:07:09;;;;;;;19.88;11.40;;;;;;;;;;4975419;28;20548;-85
2022/05/10 06:09:35;;;;;;;17.83;11.20;;;;;;;;;;4993082;28;20038;-84
2022/05/10 06:12:01;;;;;;;18.45;11.25;;;;;;;;;;4991497;28;20046;-84
2022/05/10 06:14:27;;;;;;;19.90;11.73;;;;;;;;;;4991673;28;20479;-85
2022/05/10 06:16:57;;;;;;;20.38;11.32;;;;;;;;;;4991762;28;20038;-84
2022/05/10 06:19:25;;;;;;;19.38;10.80;;;;;;;;;;4991790;28;20034;-85
2022/05/10 06:21:51;;;;;;;17.33;10.23;;;;;;;;;;4991496;28;20046;-84
2022/05/10 06:24:17;;;;;;;16.92;10.55;;;;;;;;;;4991724;28;20046;-85
2022/05/10 06:26:43;;;;;;;20.83;10.27;;;;;;;;;;4959072;28;20097;-84
2022/05/10 06:29:09;;;;;;;15.32;10.63;;;;;;;;;;4991778;28;20441;-85
2022/05/10 06:31:36;;;;;;;17.42;11.30;;;;;;;;;;4959730;28;20169;-84
2022/05/10 06:34:02;;;;;;;16.67;10.43;;;;;;;;;;4995127;28;20041;-86
2022/05/10 06:36:28;;;;;;;15.40;10.70;;;;;;;;;;4994803;28;20567;-88
2022/05/10 06:38:54;;;;;;;17.25;10.07;;;;;;;;;;4994843;28;20117;-82
2022/05/10 06:41:20;;;;;;;20.55;9.52;;;;;;;;;;4962490;28;20497;-85
2022/05/10 06:43:46;;;;;;;15.90;9.60;;;;;;;;;;4978882;28;20042;-85
2022/05/10 06:46:13;;;;;;;14.98;9.88;;;;;;;;;;4978367;28;20050;-85
2022/05/10 06:48:39;;;;;;;13.55;9.02;;;;;;;;;;4978597;28;20485;-86
2022/05/10 06:51:06;;;;;;;13.20;7.75;;;;;;;;;;4978306;28;20041;-85
2022/05/10 06:53:32;;;;;;;15.05;8.88;;;;;;;;;;4973321;28;20058;-87
2022/05/10 06:55:59;;;;;;;12.40;8.13;;;;;;;;;;4978307;28;20097;-86
2022/05/10 06:58:25;;;;;;;13.30;7.40;;;;;;;;;;4978250;28;20507;-85
2022/05/10 07:00:51;;;;;;;12.50;7.68;;;;;;;;;;4978655;28;20133;-85
2022/05/10 07:03:17;;;;;;;14.15;7.57;;;;;;;;;;4962471;28;20073;-85
2022/05/10 07:05:44;;;;;;;14.27;7.32;;;;;;;;;;4996568;28;20096;-86
2022/05/10 07:08:11;;;;;;;12.05;6.60;;;;;;;;;;4978801;28;20500;-86
2022/05/10 07:10:37;;;;;;;10.50;5.97;;;;;;;;;;4995987;28;20049;-85
2022/05/10 07:13:03;;;;;;;10.02;6.30;;;;;;;;;;4977972;28;20038;-85
2022/05/10 07:15:30;;;;;;;9.75;5.88;;;;;;;;;;4978466;28;20058;-86
2022/05/10 07:17:56;;;;;;;12.00;6.38;;;;;;;;;;4978027;28;20136;-85
2022/05/10 07:20:22;;;;;;;16.00;6.95;;;;;;;;;;4978337;28;20401;-86
2022/05/10 07:22:48;;;;;;;13.73;6.95;;;;;;;;;;4977932;28;20042;-86
2022/05/10 07:25:15;;;;;;;14.63;6.85;;;;;;;;;;4994133;28;20061;-85
2022/05/10 07:27:41;;;;;;;11.57;6.68;;;;;;;;;;4976501;28;20049;-85
2022/05/10 07:30:08;;;;;;;9.63;6.10;;;;;;;;;;4995440;28;20043;-85
2022/05/10 07:32:34;;;;;;;12.25;6.95;;;;;;;;;;4977755;28;20042;-86
2022/05/10 07:35:03;;;;;;;13.63;6.10;;;;;;;;;;4977866;28;20065;-85
2022/05/10 07:37:29;;;;;;;14.15;6.03;;;;;;;;;;4993648;28;20129;-86
2022/05/10 07:39:55;;;;;;;11.48;5.72;;;;;;;;;;4977608;28;20050;-85
2022/05/10 07:42:21;;;;;;;13.32;5.90;;;;;;;;;;4977557;28;20130;-86
2022/05/10 07:44:51;;;;;;;12.43;5.70;;;;;;;;;;4976862;28;20035;-84
2022/05/10 07:47:17;;;;;;;14.00;6.22;;;;;;;;;;4977551;28;20394;-85
2022/05/10 07:49:43;;;;;;;13.43;5.75;;;;;;;;;;4977466;28;20046;-82
2022/05/10 07:52:09;;;;;;;12.68;4.82;;;;;;;;;;4977568;28;20045;-84
2022/05/10 07:54:36;;;;;;;9.98;5.43;;;;;;;;;;4977226;28;20101;-90
2022/05/10 07:57:02;;;;;;;9.48;4.82;;;;;;;;;;4993626;28;20046;-83
2022/05/10 07:59:29;;;;;;;11.05;4.75;;;;;;;;;;4977554;28;20162;-83
2022/05/10 08:01:55;;;;;;;10.57;4.97;;;;;;;;;;4993486;28;20050;-84
2022/05/10 08:04:21;;;;;;;11.18;4.85;;;;;;;;;;4977239;28;20370;-81
2022/05/10 08:06:47;;;;;;;12.43;5.38;;;;;;;;;;4977126;28;20049;-83
2022/05/10 08:09:14;;;;;;;10.05;4.85;;;;;;;;;;4977377;28;20117;-84
2022/05/10 08:11:40;;;;;;;9.05;4.20;;;;;;;;;;4960854;28;20121;-84
2022/05/10 08:14:06;;;;;;;13.27;4.97;;;;;;;;;;4994636;28;20039;-84
2022/05/10 08:16:33;;;;;;;11.57;4.90;;;;;;;;;;4977021;28;20046;-82
2022/05/10 08:18:59;;;;;;;10.40;4.80;;;;;;;;;;4992893;28;20054;-84
2022/05/10 08:21:25;;;;;;;10.45;5.07;;;;;;;;;;4976968;28;20050;-83
2022/05/10 08:23:55;;;;;;;8.30;4.57;;;;;;;;;;4976568;28;20046;-84
2022/05/10 08:26:21;;;;;;;11.13;4.25;;;;;;;;;;4977046;28;20129;-83
2022/05/10 08:28:47;;;;;;;13.95;4.75;;;;;;;;;;4976560;28;20047;-84
2022/05/10 08:31:13;;;;;;;9.38;4.63;;;;;;;;;;4994389;28;20038;-84
2022/05/10 08:33:41;;;;;;;10.30;4.82;;;;;;;;;;4976789;28;20077;-84
2022/05/10 08:36:08;;;;;;;11.63;5.00;;;;;;;;;;4993071;28;20448;-84
2022/05/10 08:38:34;;;;;;;11.50;4.75;;;;;;;;;;4992597;28;20134;-84
2022/05/10 08:41:08;;;;;;;12.82;4.72;;;;;;;;;;4976812;28;20121;-83
2022/05/10 08:43:39;;;;;;;12.00;4.53;;;;;;;;;;4994067;28;20046;-84
2022/05/10 08:46:06;;;;;;;13.45;5.13;;;;;;;;;;4976658;28;20038;-83
2022/05/10 08:48:32;;;;;;;11.27;5.03;;;;;;;;;;4976137;28;20077;-83
2022/05/10 08:50:58;;;;;;;9.00;5.03;;;;;;;;;;4960718;28;20049;-83
2022/05/10 08:53:25;;;;;;;8.57;4.90;;;;;;;;;;4973049;28;20379;-82
2022/05/10 08:56:01;;;;;;;11.75;4.47;;;;;;;;;;4973118;28;20086;-83
2022/05/10 08:58:33;;;;;;;10.30;4.90;;;;;;;;;;4972976;28;20383;-83
2022/05/10 09:01:01;;;;;;;10.35;5.13;;;;;;;;;;4973052;28;20134;-82
2022/05/10 09:03:27;;;;;;;13.20;5.35;;;;;;;;;;4973199;28;20050;-83
2022/05/10 09:05:57;;;;;;;14.98;5.30;;;;;;;;;;4974305;28;20047;-82
2022/05/10 09:08:22;;;;;;;13.18;5.15;;;;;;;;;;4974177;28;20045;-82
2022/05/10 09:10:51;;;;;;;7.78;4.68;;;;;;;;;;4973042;28;20038;-84
2022/05/10 09:13:18;;;;;;;12.07;5.30;;;;;;;;;;4973897;28;20042;-83
2022/05/10 09:16:11;;;;;;;9.25;4.63;;;;;;;;;;4972801;28;20097;-83
2022/05/10 09:18:39;;;;;;;10.85;4.40;;;;;;;;;;4971136;28;20053;-83
2022/05/10 09:21:20;;;;;;;9.38;4.90;;;;;;;;;;4974366;28;20054;-83
2022/05/10 09:23:53;;;;;;;9.95;4.68;;;;;;;;;;4973890;28;20128;-83
2022/05/10 09:26:19;;;;;;;17.35;5.18;;;;;;;;;;4972677;28;20051;-83
2022/05/10 09:28:49;;;;;;;10.57;5.35;;;;;;;;;;4972648;28;20478;-84
2022/05/10 09:34:47;;;;;;;10.63;5.30;;;;;;;;;;4969006;28;20479;-83
2022/05/10 09:37:33;;;;;;;13.43;5.63;;;;;;;;;;4972925;28;20394;-83
2022/05/10 09:40:02;;;;;;;11.43;5.95;;;;;;;;;;4972607;28;20138;-83
2022/05/10 09:42:30;;;;;;;13.13;6.35;;;;;;;;;;4972676;28;20042;-83
2022/05/10 09:45:00;;;;;;;9.75;6.13;;;;;;;;;;4956391;28;20081;-84
2022/05/10 09:47:26;;;;;;;10.88;7.68;;;;;;;;;;4972403;28;20046;-83
2022/05/10 09:49:52;;;;;;;10.60;6.90;;;;;;;;;;4972689;28;20047;-84
2022/05/10 09:52:20;;;;;;;12.60;7.18;;;;;;;;;;4972617;28;20474;-84
2022/05/10 09:54:47;;;;;;;15.38;7.03;;;;;;;;;;4972094;28;20066;-84
2022/05/10 09:57:25;;;;;;;12.18;7.28;;;;;;;;;;4972714;28;20051;-84
2022/05/10 09:59:51;;;;;;;11.35;7.10;;;;;;;;;;4973762;28;20038;-84
2022/05/10 10:02:36;;;;;;;11.82;6.70;;;;;;;;;;4972421;28;20482;-83
2022/05/10 10:05:21;;;;;;;12.77;7.55;;;;;;;;;;4973754;28;20039;-84
2022/05/10 10:07:53;;;;;;;14.52;6.60;;;;;;;;;;4974795;28;20086;-83
2022/05/10 10:10:39;;;;;;;13.48;6.22;;;;;;;;;;4976196;28;20039;-83
2022/05/10 10:13:27;;;;;;;17.80;7.07;;;;;;;;;;4976308;28;20525;-84
2022/05/10 10:15:54;;;;;;;12.43;5.80;;;;;;;;;;4976478;28;20146;-83
2022/05/10 10:18:42;;;;;;;10.50;6.18;;;;;;;;;;4975856;28;20078;-83
2022/05/10 10:21:09;;;;;;;12.20;7.00;;;;;;;;;;4975941;28;20081;-83
2022/05/10 10:23:38;;;;;;;16.15;7.28;;;;;;;;;;4975978;28;20065;-83
2022/05/10 10:26:07;;;;;;;12.45;7.45;;;;;;;;;;4975689;28;20538;-83
2022/05/10 10:28:45;;;;;;;13.48;6.25;;;;;;;;;;4975648;28;20042;-81
2022/05/10 10:31:11;;;;;;;14.40;6.88;;;;;;;;;;4976071;28;20046;-82
2022/05/10 10:33:39;;;;;;;11.70;5.75;;;;;;;;;;4975834;28;20034;-82
2022/05/10 10:36:09;;;;;;;9.75;6.05;;;;;;;;;;4959768;28;20101;-83
2022/05/10 10:38:47;;;;;;;11.35;5.75;;;;;;;;;;4976266;28;20406;-83
2022/05/10 10:41:18;;;;;;;10.02;5.45;;;;;;;;;;4975660;28;20490;-82
2022/05/10 10:44:04;;;;;;;9.68;5.88;;;;;;;;;;4975601;28;20082;-83
2022/05/10 10:46:30;;;;;;;14.43;5.32;;;;;;;;;;4975024;28;20129;-82
2022/05/10 10:48:57;;;;;;;13.93;5.30;;;;;;;;;;4976511;28;20123;-82
2022/05/10 10:51:27;;;;;;;12.15;5.10;;;;;;;;;;4975741;28;20173;-82
2022/05/10 10:53:53;;;;;;;8.45;5.57;;;;;;;;;;4974846;28;20501;-82
2022/05/10 10:56:33;;;;;;;14.43;5.25;;;;;;;;;;4975297;28;20117;-82
2022/05/10 10:59:14;;;;;;;14.40;5.30;;;;;;;;;;4975073;28;20181;-82
2022/05/10 11:01:58;;;;;;;8.00;4.95;;;;;;;;;;4959150;28;20042;-82
2022/05/10 11:04:43;;;;;;;12.68;5.50;;;;;;;;;;4975219;28;20358;-82
2022/05/10 11:07:23;;;;;;;19.58;6.70;;;;;;;;;;4976316;28;20494;-82
2022/05/10 11:09:49;;;;;;;14.18;5.78;;;;;;;;;;4976439;28;20054;-81
2022/05/10 11:12:36;;;;;;;10.52;5.40;;;;;;;;;;4975043;28;20383;-82
2022/05/10 11:15:24;;;;;;;10.32;6.35;;;;;;;;;;4974835;28;20046;-82
2022/05/10 11:18:30;;;;;;;12.00;6.88;;;;;;;;;;4974235;28;20039;-80
2022/05/10 11:20:55;;;;;;;13.07;7.10;;;;;;;;;;4916762;29;20100;-82
2022/05/10 11:23:51;;;;;;;11.02;6.35;;;;;;;;;;4916728;29;20568;-81
2022/05/10 11:26:36;;;;;;;12.68;6.18;;;;;;;;;;4949038;28;20135;-81
2022/05/10 11:29:20;;;;;;;11.65;6.88;;;;;;;;;;4975582;28;20517;-81
2022/05/10 11:32:02;;;;;;;11.27;6.18;;;;;;;;;;4974730;28;20117;-81
2022/05/10 11:34:55;;;;;;;17.17;5.95;;;;;;;;;;4974502;28;20043;-82
2022/05/10 11:37:27;;;;;;;14.05;6.25;;;;;;;;;;4971290;28;20523;-82
2022/05/10 11:40:09;;;;;;;14.25;7.20;;;;;;;;;;4975822;28;20042;-82
2022/05/10 11:42:47;;;;;;;13.43;6.75;;;;;;;;;;4974919;28;20073;-81
2022/05/10 11:45:22;;;;;;;11.07;6.85;;;;;;;;;;4973932;28;20050;-81
2022/05/10 11:47:57;;;;;;;15.00;6.40;;;;;;;;;;4974319;28;20119;-81
2022/05/10 11:50:28;;;;;;;15.27;6.45;;;;;;;;;;4958295;28;20084;-81
2022/05/10 11:53:20;;;;;;;11.75;5.75;;;;;;;;;;4974253;28;20039;-81
2022/05/10 11:55:49;;;;;;;14.18;6.47;;;;;;;;;;4991778;28;20520;-81
2022/05/10 11:58:15;;;;;;;14.82;6.15;;;;;;;;;;4961151;28;20121;-81
2022/05/10 12:00:42;;;;;;;12.27;6.75;;;;;;;;;;4977084;28;20135;-81
2022/05/10 12:03:13;;;;;;;11.15;6.55;;;;;;;;;;4977576;28;20477;-81
2022/05/10 12:05:39;;;;;;;12.02;6.32;;;;;;;;;;4994656;28;20045;-81
2022/05/10 12:08:25;;;;;;;12.57;6.15;;;;;;;;;;4977126;28;20052;-81
2022/05/10 12:10:52;;;;;;;11.75;5.97;;;;;;;;;;4976998;28;20043;-81
2022/05/10 12:22:04;;;;;;;10.18;4.97;;;;;;;;;;4957564;28;20082;-81
2022/05/10 12:24:31;;;;;;;9.40;4.45;;;;;;;;;;4974650;28;20047;-82
2022/05/10 12:26:59;;;;;;;14.70;4.30;;;;;;;;;;4957586;28;20043;-82
2022/05/10 12:29:40;;;;;;;9.73;4.97;;;;;;;;;;4956921;28;20085;-81
2022/05/10 12:32:06;;;;;;;10.25;4.88;;;;;;;;;;4957718;28;20043;-82
2022/05/10 12:34:38;;;;;;;12.15;4.57;;;;;;;;;;4957460;28;20158;-82
2022/05/10 12:37:26;;;;;;;15.35;4.80;;;;;;;;;;4957283;28;20101;-82
2022/05/10 12:40:03;;;;;;;7.43;4.22;;;;;;;;;;4957076;28;20046;-82
2022/05/10 12:42:32;;;;;;;26.85;6.10;;;;;;;;;;4941310;28;20097;-81
2022/05/10 12:45:16;;;;;;;10.93;4.65;;;;;;;;;;4956997;28;20047;-82
2022/05/10 12:47:55;;;;;;;11.65;4.65;;;;;;;;;;4957326;28;20457;-82
2022/05/10 12:50:30;;;;;;;13.13;4.93;;;;;;;;;;4956900;28;20038;-82
2022/05/10 12:52:56;;;;;;;14.05;4.68;;;;;;;;;;4956906;28;20043;-82
2022/05/10 12:55:27;;;;;;;12.68;5.30;;;;;;;;;;4956815;28;20062;-82
2022/05/10 12:57:59;;;;;;;11.15;6.43;;;;;;;;;;4974274;28;20042;-81
2022/05/10 13:00:26;;;;;;;17.17;5.90;;;;;;;;;;4956739;28;20042;-82
2022/05/10 13:02:55;;;;;;;11.70;5.82;;;;;;;;;;4956984;28;20049;-82
2022/05/10 13:05:26;;;;;;;15.80;6.10;;;;;;;;;;4973957;28;20043;-81
2022/05/10 13:08:16;;;;;;;11.80;5.53;;;;;;;;;;4956902;28;20082;-81
2022/05/10 13:10:43;;;;;;;10.25;5.45;;;;;;;;;;4956696;28;20049;-82
2022/05/10 13:13:21;;;;;;;11.07;4.93;;;;;;;;;;4956837;28;20078;-82
2022/05/10 13:15:48;;;;;;;12.35;5.30;;;;;;;;;;4974160;28;20050;-82
2022/05/10 13:18:18;;;;;;;12.98;5.00;;;;;;;;;;4956732;28;20074;-82
2022/05/10 13:20:51;;;;;;;9.82;4.55;;;;;;;;;;4973852;28;20039;-83
2022/05/10 13:23:18;;;;;;;10.55;4.20;;;;;;;;;;4956010;28;20070;-83
2022/05/10 13:25:44;;;;;;;13.57;4.30;;;;;;;;;;4956706;28;20051;-83
2022/05/10 13:28:18;;;;;;;11.45;4.80;;;;;;;;;;4956524;28;20049;-82
2022/05/10 13:30:48;;;;;;;13.75;4.72;;;;;;;;;;4956385;28;20082;-83
2022/05/10 13:33:25;;;;;;;10.90;4.35;;;;;;;;;;4957108;28;20046;-83
2022/05/10 13:35:53;;;;;;;11.88;4.22;;;;;;;;;;4973884;28;20054;-83
2022/05/10 13:38:21;;;;;;;10.65;3.85;;;;;;;;;;4973900;28;20039;-83
2022/05/10 13:40:49;;;;;;;11.80;3.90;;;;;;;;;;4956544;28;20178;-83
2022/05/10 13:43:16;;;;;;;9.15;3.58;;;;;;;;;;4944156;28;20125;-84
2022/05/10 13:45:48;;;;;;;7.05;3.30;;;;;;;;;;4960201;28;20039;-83
2022/05/10 13:48:14;;;;;;;8.65;3.05;;;;;;;;;;4960585;28;20050;-83
2022/05/10 13:50:41;;;;;;;12.65;3.47;;;;;;;;;;4960330;28;20513;-82
2022/05/10 13:53:09;;;;;;;10.90;2.60;;;;;;;;;;4977555;28;20042;-84
2022/05/10 13:55:39;;;;;;;6.15;2.95;;;;;;;;;;4977428;28;20505;-83
2022/05/10 13:58:08;;;;;;;15.05;2.97;;;;;;;;;;4960177;28;20113;-83
2022/05/10 14:00:34;;;;;;;7.63;2.97;;;;;;;;;;4960248;28;20072;-83
2022/05/10 14:03:00;;;;;;;11.40;3.20;;;;;;;;;;4960157;28;20486;-83
2022/05/10 14:05:29;;;;;;;10.93;2.80;;;;;;;;;;4959775;28;20047;-83
2022/05/10 14:08:00;;;;;;;10.43;2.80;;;;;;;;;;4977543;28;20105;-83
2022/05/10 14:10:32;;;;;;;7.60;2.67;;;;;;;;;;4960076;28;20042;-83
2022/05/10 14:13:00;;;;;;;10.02;2.63;;;;;;;;;;4960051;28;20056;-83
2022/05/10 14:15:27;;;;;;;12.93;2.95;;;;;;;;;;4959687;28;20098;-84
2022/05/10 14:17:57;;;;;;;13.52;2.40;;;;;;;;;;4959933;28;20055;-84
2022/05/10 14:20:24;;;;;;;12.23;2.78;;;;;;;;;;4959848;28;20482;-83
2022/05/10 14:23:01;;;;;;;13.38;2.35;;;;;;;;;;4943754;28;20130;-83
2022/05/10 14:25:29;;;;;;;11.60;1.90;;;;;;;;;;4976835;28;20557;-81
2022/05/10 14:28:01;;;;;;;7.43;1.50;;;;;;;;;;4959703;28;20043;-82
2022/05/10 14:30:28;;;;;;;12.07;1.38;;;;;;;;;;4976813;28;20097;-82
2022/05/10 14:32:54;;;;;;;11.30;1.77;;;;;;;;;;4959894;28;20478;-82
2022/05/10 14:35:31;;;;;;;6.53;1.73;;;;;;;;;;4959529;28;20125;-84
2022/05/10 14:38:00;;;;;;;6.30;1.17;;;;;;;;;;4959524;28;20050;-84
2022/05/10 14:40:29;;;;;;;9.00;1.30;;;;;;;;;;4976579;28;20563;-84
2022/05/10 14:43:11;;;;;;;11.00;1.75;;;;;;;;;;4959414;28;20039;-83
2022/05/10 14:45:40;;;;;;;4.55;1.30;;;;;;;;;;4976649;28;20109;-83
2022/05/10 14:48:19;;;;;;;3.90;1.05;;;;;;;;;;4976848;28;20389;-83
2022/05/10 14:50:47;;;;;;;5.47;1.20;;;;;;;;;;4943056;28;20039;-83
2022/05/10 14:53:20;;;;;;;4.43;0.80;;;;;;;;;;4943096;28;20216;-83
2022/05/10 14:55:48;;;;;;;4.68;1.00;;;;;;;;;;4959015;28;20046;-83
2022/05/10 14:58:30;;;;;;;3.72;1.25;;;;;;;;;;4976708;28;20047;-84
2022/05/10 15:01:13;;;;;;;4.88;0.90;;;;;;;;;;4959302;28;20450;-83